sensor_id;sensor_type;location;lat;lon;timestamp;pressure;altitude;pressure_sealevel;temperature;humidity
78488;BME280;67885;49.758;9.582;2024-03-23T00:53:50;98316.53;;;14.68;45.81
78488;BME280;67885;49.758;9.582;2024-03-23T00:56:15;98389.03;;;15.11;46.01
78488;BME280;67885;49.758;9.582;2024-03-23T00:58:42;98376.59;;;14.95;46.13
78488;BME280;67885;49.758;9.582;2024-03-23T01:01:07;98384.94;;;14.92;46.70
78488;BME280;67885;49.758;9.582;2024-03-23T01:03:34;98348.16;;;14.71;47.02
78488;BME280;67885;49.758;9.582;2024-03-23T01:06:00;98364.09;;;14.88;47.22
78488;BME280;67885;49.758;9.582;2024-03-23T01:08:27;98366.31;;;14.84;48.04
78488;BME280;67885;49.758;9.582;2024-03-23T01:10:57;98353.84;;;14.68;48.19
78488;BME280;67885;49.758;9.582;2024-03-23T01:13:24;98362.97;;;14.82;48.34
78488;BME280;67885;49.758;9.582;2024-03-23T01:15:50;98314.03;;;14.58;47.84
78488;BME280;67885;49.758;9.582;2024-03-23T01:18:18;98343.50;;;14.73;47.83
78488;BME280;67885;49.758;9.582;2024-03-23T01:20:44;98343.69;;;14.63;48.10
78488;BME280;67885;49.758;9.582;2024-03-23T01:23:11;98243.91;;;14.02;48.83
78488;BME280;67885;49.758;9.582;2024-03-23T01:25:37;98310.22;;;14.36;48.65
78488;BME280;67885;49.758;9.582;2024-03-23T01:28:04;98317.41;;;14.36;48.88
78488;BME280;67885;49.758;9.582;2024-03-23T01:30:31;98278.00;;;14.06;49.42
78488;BME280;67885;49.758;9.582;2024-03-23T01:32:58;98306.78;;;14.27;49.68
78488;BME280;67885;49.758;9.582;2024-03-23T01:35:24;98296.13;;;14.27;49.22
78488;BME280;67885;49.758;9.582;2024-03-23T01:37:50;98300.13;;;14.23;49.61
78488;BME280;67885;49.758;9.582;2024-03-23T01:40:19;98268.19;;;13.98;49.46
78488;BME280;67885;49.758;9.582;2024-03-23T01:43:03;98289.47;;;14.23;49.61
78488;BME280;67885;49.758;9.582;2024-03-23T01:45:30;98287.63;;;14.24;49.26
78488;BME280;67885;49.758;9.582;2024-03-23T01:47:57;98297.28;;;14.25;49.15
78488;BME280;67885;49.758;9.582;2024-03-23T01:50:23;98292.13;;;14.23;48.73
78488;BME280;67885;49.758;9.582;2024-03-23T01:52:50;98292.28;;;14.22;49.27
78488;BME280;67885;49.758;9.582;2024-03-23T01:55:16;98294.28;;;14.20;48.62
78488;BME280;67885;49.758;9.582;2024-03-23T01:57:42;98273.50;;;14.15;48.59
78488;BME280;67885;49.758;9.582;2024-03-23T02:00:08;98276.47;;;14.12;49.25
78488;BME280;67885;49.758;9.582;2024-03-23T02:02:44;98190.38;;;13.39;48.97
78488;BME280;67885;49.758;9.582;2024-03-23T02:05:13;98259.53;;;14.05;48.75
78488;BME280;67885;49.758;9.582;2024-03-23T02:07:41;98263.00;;;14.05;49.67
78488;BME280;67885;49.758;9.582;2024-03-23T02:10:07;98249.88;;;14.04;49.58
78488;BME280;67885;49.758;9.582;2024-03-23T02:12:35;98203.69;;;13.72;48.91
78488;BME280;67885;49.758;9.582;2024-03-23T02:15:00;98240.91;;;13.96;49.50
78488;BME280;67885;49.758;9.582;2024-03-23T02:17:28;98244.72;;;13.94;49.41
78488;BME280;67885;49.758;9.582;2024-03-23T02:19:54;98240.91;;;13.96;49.84
78488;BME280;67885;49.758;9.582;2024-03-23T02:22:20;98231.75;;;13.99;49.71
78488;BME280;67885;49.758;9.582;2024-03-23T02:24:46;98228.13;;;13.92;49.42
78488;BME280;67885;49.758;9.582;2024-03-23T02:27:12;98209.47;;;13.75;50.41
78488;BME280;67885;49.758;9.582;2024-03-23T02:29:38;98220.47;;;13.80;50.05
78488;BME280;67885;49.758;9.582;2024-03-23T02:32:05;98215.81;;;13.74;51.06
78488;BME280;67885;49.758;9.582;2024-03-23T02:34:30;98216.63;;;13.75;50.87
78488;BME280;67885;49.758;9.582;2024-03-23T02:36:57;98209.47;;;13.75;51.58
78488;BME280;67885;49.758;9.582;2024-03-23T02:39:22;98206.00;;;13.75;51.56
78488;BME280;67885;49.758;9.582;2024-03-23T02:41:49;98211.66;;;13.72;51.26
78488;BME280;67885;49.758;9.582;2024-03-23T02:44:15;98194.03;;;13.71;51.47
78488;BME280;67885;49.758;9.582;2024-03-23T02:46:41;98190.03;;;13.75;51.36
78488;BME280;67885;49.758;9.582;2024-03-23T02:49:07;98156.13;;;13.52;51.28
78488;BME280;67885;49.758;9.582;2024-03-23T02:51:34;98189.84;;;13.76;51.22
78488;BME280;67885;49.758;9.582;2024-03-23T02:53:59;98179.38;;;13.75;51.18
78488;BME280;67885;49.758;9.582;2024-03-23T02:56:26;98181.72;;;13.70;51.51
78488;BME280;67885;49.758;9.582;2024-03-23T02:58:51;98167.75;;;13.68;51.57
78488;BME280;67885;49.758;9.582;2024-03-23T03:01:18;98165.28;;;13.66;51.42
78488;BME280;67885;49.758;9.582;2024-03-23T03:03:43;98118.41;;;13.40;51.88
78488;BME280;67885;49.758;9.582;2024-03-23T03:06:10;98124.19;;;13.52;52.03
78488;BME280;67885;49.758;9.582;2024-03-23T03:08:35;98152.94;;;13.73;52.47
78488;BME280;67885;49.758;9.582;2024-03-23T03:11:02;98157.75;;;13.78;52.33
78488;BME280;67885;49.758;9.582;2024-03-23T03:13:27;98153.56;;;13.83;52.00
78488;BME280;67885;49.758;9.582;2024-03-23T03:15:54;98127.16;;;13.74;51.79
78488;BME280;67885;49.758;9.582;2024-03-23T03:18:19;98148.28;;;13.75;51.47
78488;BME280;67885;49.758;9.582;2024-03-23T03:20:46;98156.94;;;13.69;52.04
78488;BME280;67885;49.758;9.582;2024-03-23T03:23:11;98150.13;;;13.66;52.33
78488;BME280;67885;49.758;9.582;2024-03-23T03:25:38;98149.78;;;13.70;52.73
78488;BME280;67885;49.758;9.582;2024-03-23T03:28:03;98132.84;;;13.29;52.26
78488;BME280;67885;49.758;9.582;2024-03-23T03:30:30;98113.75;;;13.42;52.94
78488;BME280;67885;49.758;9.582;2024-03-23T03:32:56;98142.00;;;13.60;52.83
78488;BME280;67885;49.758;9.582;2024-03-23T03:35:22;98144.00;;;13.66;52.83
78488;BME280;67885;49.758;9.582;2024-03-23T03:37:48;98140.00;;;13.70;52.72
78488;BME280;67885;49.758;9.582;2024-03-23T03:40:14;98132.66;;;13.72;53.09
78488;BME280;67885;49.758;9.582;2024-03-23T03:42:40;98124.88;;;13.62;54.17
78488;BME280;67885;49.758;9.582;2024-03-23T03:45:07;98136.47;;;13.78;53.06
78488;BME280;67885;49.758;9.582;2024-03-23T03:47:33;98144.59;;;13.85;53.84
78488;BME280;67885;49.758;9.582;2024-03-23T03:49:59;98142.09;;;13.91;52.92
78488;BME280;67885;49.758;9.582;2024-03-23T03:52:25;98129.78;;;13.98;53.77
78488;BME280;67885;49.758;9.582;2024-03-23T03:55:00;98116.78;;;13.95;53.41
78488;BME280;67885;49.758;9.582;2024-03-23T03:57:27;98124.56;;;14.13;52.86
78488;BME280;67885;49.758;9.582;2024-03-23T03:59:54;98103.78;;;14.09;52.69
78488;BME280;67885;49.758;9.582;2024-03-23T04:02:19;98118.84;;;14.25;52.23
78488;BME280;67885;49.758;9.582;2024-03-23T04:04:46;98064.41;;;13.96;52.09
78488;BME280;67885;49.758;9.582;2024-03-23T04:07:11;98090.50;;;14.00;52.09
78488;BME280;67885;49.758;9.582;2024-03-23T04:09:38;98033.91;;;13.59;53.93
78488;BME280;67885;49.758;9.582;2024-03-23T04:12:04;98094.47;;;14.05;52.38
78488;BME280;67885;49.758;9.582;2024-03-23T04:14:31;98041.34;;;13.80;52.42
78488;BME280;67885;49.758;9.582;2024-03-23T04:16:57;98080.31;;;14.12;52.08
78488;BME280;67885;49.758;9.582;2024-03-23T04:19:23;98092.72;;;14.20;52.41
78488;BME280;67885;49.758;9.582;2024-03-23T04:21:49;98080.41;;;14.27;52.11
78488;BME280;67885;49.758;9.582;2024-03-23T04:24:15;98086.34;;;14.29;52.58
78488;BME280;67885;49.758;9.582;2024-03-23T04:26:45;98077.88;;;14.34;52.69
78488;BME280;67885;49.758;9.582;2024-03-23T04:29:12;98066.84;;;14.37;51.87
78488;BME280;67885;49.758;9.582;2024-03-23T04:31:38;98066.16;;;14.43;51.73
78488;BME280;67885;49.758;9.582;2024-03-23T04:34:04;98060.84;;;14.43;52.10
78488;BME280;67885;49.758;9.582;2024-03-23T04:36:30;98057.16;;;14.44;52.29
78488;BME280;67885;49.758;9.582;2024-03-23T04:38:59;98055.31;;;14.45;52.53
78488;BME280;67885;49.758;9.582;2024-03-23T04:41:26;98066.97;;;14.44;52.16
78488;BME280;67885;49.758;9.582;2024-03-23T04:43:52;98067.97;;;14.43;52.43
78488;BME280;67885;49.758;9.582;2024-03-23T04:46:19;98025.81;;;14.23;52.45
78488;BME280;67885;49.758;9.582;2024-03-23T04:48:46;98061.84;;;14.42;52.61
78488;BME280;67885;49.758;9.582;2024-03-23T04:51:23;98064.31;;;14.44;52.26
78488;BME280;67885;49.758;9.582;2024-03-23T04:53:49;97973.06;;;13.95;52.18
78488;BME280;67885;49.758;9.582;2024-03-23T04:56:16;98050.19;;;14.43;51.79
78488;BME280;67885;49.758;9.582;2024-03-23T04:58:44;98036.13;;;14.26;52.08
78488;BME280;67885;49.758;9.582;2024-03-23T05:01:11;98050.56;;;14.32;51.80
78488;BME280;67885;49.758;9.582;2024-03-23T05:03:37;98062.00;;;14.41;51.44
78488;BME280;67885;49.758;9.582;2024-03-23T05:06:03;98064.00;;;14.39;51.54
78488;BME280;67885;49.758;9.582;2024-03-23T05:08:30;98054.84;;;14.41;51.11
78488;BME280;67885;49.758;9.582;2024-03-23T05:10:56;98042.19;;;14.43;51.18
78488;BME280;67885;49.758;9.582;2024-03-23T05:13:22;98046.50;;;14.44;50.95
78488;BME280;67885;49.758;9.582;2024-03-23T05:15:53;98036.75;;;14.37;50.80
78488;BME280;67885;49.758;9.582;2024-03-23T05:18:20;98036.06;;;14.34;50.36
78488;BME280;67885;49.758;9.582;2024-03-23T05:20:46;98037.50;;;14.45;50.58
78488;BME280;67885;49.758;9.582;2024-03-23T05:23:12;97986.25;;;14.12;50.14
78488;BME280;67885;49.758;9.582;2024-03-23T05:25:38;98041.66;;;14.48;49.91
78488;BME280;67885;49.758;9.582;2024-03-23T05:28:04;98046.97;;;14.48;49.55
78488;BME280;67885;49.758;9.582;2024-03-23T05:30:30;98002.59;;;14.09;49.65
78488;BME280;67885;49.758;9.582;2024-03-23T05:32:57;98060.00;;;14.43;50.24
78488;BME280;67885;49.758;9.582;2024-03-23T05:35:22;98066.63;;;14.47;50.63
78488;BME280;67885;49.758;9.582;2024-03-23T05:37:52;98035.31;;;14.26;50.75
78488;BME280;67885;49.758;9.582;2024-03-23T05:40:17;98078.44;;;14.44;51.42
78488;BME280;67885;49.758;9.582;2024-03-23T05:42:44;98076.31;;;14.40;52.11
78488;BME280;67885;49.758;9.582;2024-03-23T05:45:10;98072.25;;;13.89;52.97
78488;BME280;67885;49.758;9.582;2024-03-23T05:47:37;98107.25;;;14.18;53.74
78488;BME280;67885;49.758;9.582;2024-03-23T05:50:03;98107.84;;;13.88;54.62
78488;BME280;67885;49.758;9.582;2024-03-23T05:52:30;98136.44;;;13.86;55.27
78488;BME280;67885;49.758;9.582;2024-03-23T05:54:56;98130.84;;;13.73;56.29
78488;BME280;67885;49.758;9.582;2024-03-23T05:57:23;98081.34;;;13.39;56.37
78488;BME280;67885;49.758;9.582;2024-03-23T05:59:49;98137.81;;;13.65;56.37
78488;BME280;67885;49.758;9.582;2024-03-23T06:02:15;98142.66;;;13.54;56.56
78488;BME280;67885;49.758;9.582;2024-03-23T06:04:41;98123.56;;;13.50;56.76
78488;BME280;67885;49.758;9.582;2024-03-23T06:07:07;98135.84;;;13.59;57.01
78488;BME280;67885;49.758;9.582;2024-03-23T06:09:39;98145.16;;;13.55;57.23
78488;BME280;67885;49.758;9.582;2024-03-23T06:12:06;98143.19;;;13.41;56.45
78488;BME280;67885;49.758;9.582;2024-03-23T06:14:31;98169.25;;;13.45;56.03
78488;BME280;67885;49.758;9.582;2024-03-23T06:16:58;98160.28;;;13.38;56.35
78488;BME280;67885;49.758;9.582;2024-03-23T06:19:24;98176.72;;;13.33;54.74
78488;BME280;67885;49.758;9.582;2024-03-23T06:21:55;98183.38;;;13.21;54.82
78488;BME280;67885;49.758;9.582;2024-03-23T06:24:23;98177.72;;;13.08;54.60
78488;BME280;67885;49.758;9.582;2024-03-23T06:26:50;98199.25;;;12.96;54.40
78488;BME280;67885;49.758;9.582;2024-03-23T06:29:16;98209.41;;;12.85;54.72
78488;BME280;67885;49.758;9.582;2024-03-23T06:31:42;98208.00;;;12.72;55.36
78488;BME280;67885;49.758;9.582;2024-03-23T06:34:08;98199.78;;;12.49;55.55
78488;BME280;67885;49.758;9.582;2024-03-23T06:36:34;98238.22;;;12.63;54.90
78488;BME280;67885;49.758;9.582;2024-03-23T06:39:01;98247.78;;;12.56;53.91
78488;BME280;67885;49.758;9.582;2024-03-23T06:41:29;98266.00;;;12.51;54.37
78488;BME280;67885;49.758;9.582;2024-03-23T06:43:54;98273.50;;;12.47;53.99
78488;BME280;67885;49.758;9.582;2024-03-23T06:46:21;98272.44;;;12.40;53.47
78488;BME280;67885;49.758;9.582;2024-03-23T06:48:46;98275.00;;;12.23;53.85
78488;BME280;67885;49.758;9.582;2024-03-23T06:51:13;98277.38;;;12.08;53.40
78488;BME280;67885;49.758;9.582;2024-03-23T06:53:38;98310.75;;;12.11;53.95
78488;BME280;67885;49.758;9.582;2024-03-23T06:56:05;98325.63;;;12.04;53.35
78488;BME280;67885;49.758;9.582;2024-03-23T06:58:31;98299.03;;;11.77;54.15
78488;BME280;67885;49.758;9.582;2024-03-23T07:00:58;98344.16;;;11.95;53.76
78488;BME280;67885;49.758;9.582;2024-03-23T07:03:23;98247.59;;;11.34;54.59
78488;BME280;67885;49.758;9.582;2024-03-23T07:05:51;98354.88;;;11.94;54.00
78488;BME280;67885;49.758;9.582;2024-03-23T07:08:16;98349.56;;;11.94;53.31
78488;BME280;67885;49.758;9.582;2024-03-23T07:10:46;98321.09;;;11.78;53.30
78488;BME280;67885;49.758;9.582;2024-03-23T07:13:12;98363.97;;;11.91;53.56
78488;BME280;67885;49.758;9.582;2024-03-23T07:15:38;98335.94;;;11.71;53.26
78488;BME280;67885;49.758;9.582;2024-03-23T07:18:04;98388.06;;;11.80;54.74
78488;BME280;67885;49.758;9.582;2024-03-23T07:20:30;98373.50;;;11.84;54.46
78488;BME280;67885;49.758;9.582;2024-03-23T07:22:56;98338.81;;;11.59;54.30
78488;BME280;67885;49.758;9.582;2024-03-23T07:25:23;98390.59;;;11.81;54.14
78488;BME280;67885;49.758;9.582;2024-03-23T07:27:50;98361.47;;;11.54;53.86
78488;BME280;67885;49.758;9.582;2024-03-23T07:30:17;98400.56;;;11.70;53.81
78488;BME280;67885;49.758;9.582;2024-03-23T07:32:44;98421.94;;;11.68;55.19
78488;BME280;67885;49.758;9.582;2024-03-23T07:35:11;98425.72;;;11.66;54.74
78488;BME280;67885;49.758;9.582;2024-03-23T07:37:36;98412.97;;;11.51;54.44
78488;BME280;67885;49.758;9.582;2024-03-23T07:40:03;98387.25;;;11.34;54.90
78488;BME280;67885;49.758;9.582;2024-03-23T07:42:29;98423.88;;;11.48;54.99
78488;BME280;67885;49.758;9.582;2024-03-23T07:44:56;98452.75;;;11.51;54.98
78488;BME280;67885;49.758;9.582;2024-03-23T07:47:22;98453.72;;;11.50;55.61
78488;BME280;67885;49.758;9.582;2024-03-23T07:49:48;98472.28;;;11.50;55.54
78488;BME280;67885;49.758;9.582;2024-03-23T07:52:14;98454.63;;;11.41;54.22
78488;BME280;67885;49.758;9.582;2024-03-23T07:54:40;98478.84;;;11.56;54.34
78488;BME280;67885;49.758;9.582;2024-03-23T07:57:06;98446.53;;;11.33;54.50
78488;BME280;67885;49.758;9.582;2024-03-23T07:59:33;98492.56;;;11.69;54.05
78488;BME280;67885;49.758;9.582;2024-03-23T08:01:59;98504.41;;;11.75;54.91
78488;BME280;67885;49.758;9.582;2024-03-23T08:04:29;98477.09;;;11.64;54.25
78488;BME280;67885;49.758;9.582;2024-03-23T08:06:56;98501.00;;;11.82;53.31
78488;BME280;67885;49.758;9.582;2024-03-23T08:09:22;98502.44;;;11.77;53.38
78488;BME280;67885;49.758;9.582;2024-03-23T08:11:48;98496.31;;;11.76;53.08
78488;BME280;67885;49.758;9.582;2024-03-23T08:14:14;98534.97;;;12.07;53.52
78488;BME280;67885;49.758;9.582;2024-03-23T08:16:40;98544.56;;;12.18;53.26
78488;BME280;67885;49.758;9.582;2024-03-23T08:19:06;98545.16;;;12.11;51.54
78488;BME280;67885;49.758;9.582;2024-03-23T08:21:34;98556.53;;;12.22;51.59
78488;BME280;67885;49.758;9.582;2024-03-23T08:23:59;98539.31;;;12.08;51.23
78488;BME280;67885;49.758;9.582;2024-03-23T08:26:25;98564.66;;;12.20;50.58
78488;BME280;67885;49.758;9.582;2024-03-23T08:28:51;98530.56;;;11.97;50.83
78488;BME280;67885;49.758;9.582;2024-03-23T08:31:17;98572.22;;;12.15;50.12
78488;BME280;67885;49.758;9.582;2024-03-23T08:33:43;98574.13;;;12.05;50.49
78488;BME280;67885;49.758;9.582;2024-03-23T08:36:10;98557.25;;;11.96;50.49
78488;BME280;67885;49.758;9.582;2024-03-23T08:38:38;98586.25;;;12.07;49.82
78488;BME280;67885;49.758;9.582;2024-03-23T08:41:06;98592.28;;;12.00;49.78
78488;BME280;67885;49.758;9.582;2024-03-23T08:43:35;98604.31;;;11.84;49.88
78488;BME280;67885;49.758;9.582;2024-03-23T08:46:13;98601.97;;;11.81;50.31
78488;BME280;67885;49.758;9.582;2024-03-23T08:48:40;98573.03;;;11.60;50.33
78488;BME280;67885;49.758;9.582;2024-03-23T08:51:10;98588.34;;;11.66;50.46
78488;BME280;67885;49.758;9.582;2024-03-23T08:53:36;98622.63;;;11.87;49.79
78488;BME280;67885;49.758;9.582;2024-03-23T08:56:04;98629.22;;;11.83;50.66
78488;BME280;67885;49.758;9.582;2024-03-23T08:58:32;98632.94;;;11.90;51.52
78488;BME280;67885;49.758;9.582;2024-03-23T09:01:07;98629.16;;;12.03;51.68
78488;BME280;67885;49.758;9.582;2024-03-23T09:03:33;98624.50;;;12.14;50.55
78488;BME280;67885;49.758;9.582;2024-03-23T09:06:00;98645.38;;;12.27;50.34
78488;BME280;67885;49.758;9.582;2024-03-23T09:08:26;98647.06;;;12.56;48.62
78488;BME280;67885;49.758;9.582;2024-03-23T09:10:53;98653.97;;;12.67;48.49
78488;BME280;67885;49.758;9.582;2024-03-23T09:13:19;98659.97;;;12.69;49.44
78488;BME280;67885;49.758;9.582;2024-03-23T09:15:48;98626.38;;;12.50;47.41
78488;BME280;67885;49.758;9.582;2024-03-23T09:18:14;98656.75;;;12.65;47.33
78488;BME280;67885;49.758;9.582;2024-03-23T09:20:40;98664.06;;;12.63;47.91
78488;BME280;67885;49.758;9.582;2024-03-23T09:23:06;98662.38;;;12.62;48.24
78488;BME280;67885;49.758;9.582;2024-03-23T09:25:36;98629.59;;;12.26;48.91
78488;BME280;67885;49.758;9.582;2024-03-23T09:28:03;98675.00;;;12.60;48.47
78488;BME280;67885;49.758;9.582;2024-03-23T09:30:30;98687.88;;;12.55;47.56
78488;BME280;67885;49.758;9.582;2024-03-23T09:32:55;98683.44;;;12.46;47.69
78488;BME280;67885;49.758;9.582;2024-03-23T09:35:22;98689.63;;;12.37;47.36
78488;BME280;67885;49.758;9.582;2024-03-23T09:37:47;98683.25;;;12.29;47.02
78488;BME280;67885;49.758;9.582;2024-03-23T09:40:14;98664.31;;;12.14;47.97
78488;BME280;67885;49.758;9.582;2024-03-23T09:42:40;98669.66;;;12.32;49.24
78488;BME280;67885;49.758;9.582;2024-03-23T09:45:18;98682.97;;;12.60;49.11
78488;BME280;67885;49.758;9.582;2024-03-23T09:47:45;98686.63;;;12.77;46.16
78488;BME280;67885;49.758;9.582;2024-03-23T09:50:13;98698.03;;;12.88;47.16
78488;BME280;67885;49.758;9.582;2024-03-23T09:52:39;98645.69;;;12.70;47.21
78488;BME280;67885;49.758;9.582;2024-03-23T09:55:08;98675.09;;;13.05;46.42
78488;BME280;67885;49.758;9.582;2024-03-23T09:57:33;98681.50;;;13.12;45.60
78488;BME280;67885;49.758;9.582;2024-03-23T10:00:01;98679.28;;;13.25;44.77
78488;BME280;67885;49.758;9.582;2024-03-23T10:02:27;98661.81;;;13.23;44.99
78488;BME280;67885;49.758;9.582;2024-03-23T10:04:55;98674.94;;;13.42;42.71
78488;BME280;67885;49.758;9.582;2024-03-23T10:07:21;98679.44;;;13.42;43.05
78488;BME280;67885;49.758;9.582;2024-03-23T10:09:47;98676.00;;;13.49;42.95
78488;BME280;67885;49.758;9.582;2024-03-23T10:12:18;98681.25;;;13.59;44.38
78488;BME280;67885;49.758;9.582;2024-03-23T10:14:45;98661.38;;;13.72;42.28
78488;BME280;67885;49.758;9.582;2024-03-23T10:17:18;98662.41;;;13.79;41.86
78488;BME280;67885;49.758;9.582;2024-03-23T10:19:46;98687.75;;;13.91;41.73
78488;BME280;67885;49.758;9.582;2024-03-23T10:22:23;98690.75;;;13.88;42.05
78488;BME280;67885;49.758;9.582;2024-03-23T10:24:50;98689.38;;;13.84;40.01
78488;BME280;67885;49.758;9.582;2024-03-23T10:27:18;98677.72;;;13.77;39.86
78488;BME280;67885;49.758;9.582;2024-03-23T10:29:47;98675.88;;;13.77;40.53
78488;BME280;67885;49.758;9.582;2024-03-23T10:32:17;98652.44;;;13.81;41.30
78488;BME280;67885;49.758;9.582;2024-03-23T10:34:45;98617.28;;;13.69;42.34
78488;BME280;67885;49.758;9.582;2024-03-23T10:37:10;98671.09;;;14.15;40.86
78488;BME280;67885;49.758;9.582;2024-03-23T10:39:41;98662.31;;;14.23;40.55
78488;BME280;67885;49.758;9.582;2024-03-23T10:42:09;98669.16;;;14.26;40.46
78488;BME280;67885;49.758;9.582;2024-03-23T10:44:36;98649.63;;;14.17;40.20
78488;BME280;67885;49.758;9.582;2024-03-23T10:47:04;98672.34;;;14.38;39.58
78488;BME280;67885;49.758;9.582;2024-03-23T10:49:32;98662.03;;;14.43;38.83
78488;BME280;67885;49.758;9.582;2024-03-23T10:52:05;98668.09;;;14.53;39.50
78488;BME280;67885;49.758;9.582;2024-03-23T10:54:32;98664.09;;;14.57;38.60
78488;BME280;67885;49.758;9.582;2024-03-23T10:57:13;98683.25;;;14.61;37.76
78488;BME280;67885;49.758;9.582;2024-03-23T10:59:40;98678.41;;;14.56;37.73
78488;BME280;67885;49.758;9.582;2024-03-23T11:02:19;98675.09;;;14.54;37.95
78488;BME280;67885;49.758;9.582;2024-03-23T11:04:45;98629.31;;;14.16;38.45
78488;BME280;67885;49.758;9.582;2024-03-23T11:07:31;98681.38;;;14.45;35.86
78488;BME280;67885;49.758;9.582;2024-03-23T11:09:58;98673.66;;;14.33;34.83
78488;BME280;67885;49.758;9.582;2024-03-23T11:12:25;98675.09;;;14.20;35.25
78488;BME280;67885;49.758;9.582;2024-03-23T11:14:55;98636.84;;;13.94;36.14
78488;BME280;67885;49.758;9.582;2024-03-23T11:17:25;98658.13;;;14.21;36.60
78488;BME280;67885;49.758;9.582;2024-03-23T11:20:02;98628.16;;;14.19;37.21
78488;BME280;67885;49.758;9.582;2024-03-23T11:27:39;98638.31;;;14.15;35.32
78488;BME280;67885;49.758;9.582;2024-03-23T11:30:31;98640.63;;;14.10;35.32
78488;BME280;67885;49.758;9.582;2024-03-23T11:32:58;98601.00;;;13.72;35.21
78488;BME280;67885;49.758;9.582;2024-03-23T11:35:32;98643.13;;;14.11;37.53
78488;BME280;67885;49.758;9.582;2024-03-23T11:38:12;98641.13;;;14.13;35.10
78488;BME280;67885;49.758;9.582;2024-03-23T11:40:40;98593.22;;;13.79;34.54
78488;BME280;67885;49.758;9.582;2024-03-23T11:43:08;98618.22;;;13.94;35.38
78488;BME280;67885;49.758;9.582;2024-03-23T11:45:39;98630.38;;;13.97;35.97
78488;BME280;67885;49.758;9.582;2024-03-23T11:48:08;98617.59;;;14.00;38.29
78488;BME280;67885;49.758;9.582;2024-03-23T11:50:40;98590.63;;;13.95;36.19
78488;BME280;67885;49.758;9.582;2024-03-23T11:53:14;98621.91;;;14.36;35.51
78488;BME280;67885;49.758;9.582;2024-03-23T11:58:11;98627.75;;;14.40;35.89
78488;BME280;67885;49.758;9.582;2024-03-23T12:00:37;98620.75;;;14.47;33.60
78488;BME280;67885;49.758;9.582;2024-03-23T12:03:04;98603.94;;;14.46;33.29
78488;BME280;67885;49.758;9.582;2024-03-23T12:05:31;98604.09;;;14.37;33.00
78488;BME280;67885;49.758;9.582;2024-03-23T12:08:16;98607.56;;;14.29;34.68
78488;BME280;67885;49.758;9.582;2024-03-23T12:10:44;98620.00;;;14.20;34.29
78488;BME280;67885;49.758;9.582;2024-03-23T12:13:10;98633.59;;;14.09;34.63
78488;BME280;67885;49.758;9.582;2024-03-23T12:15:36;98640.16;;;13.88;35.32
78488;BME280;67885;49.758;9.582;2024-03-23T12:18:07;98638.66;;;13.59;36.88
78488;BME280;67885;49.758;9.582;2024-03-23T12:20:33;98674.41;;;13.57;38.60
78488;BME280;67885;49.758;9.582;2024-03-23T12:23:07;98629.13;;;13.12;41.58
78488;BME280;67885;49.758;9.582;2024-03-23T12:25:34;98654.75;;;12.95;43.28
78488;BME280;67885;49.758;9.582;2024-03-23T12:28:01;98686.09;;;13.10;44.94
78488;BME280;67885;49.758;9.582;2024-03-23T12:30:28;98690.81;;;12.98;44.56
78488;BME280;67885;49.758;9.582;2024-03-23T12:32:54;98663.16;;;12.73;44.86
78488;BME280;67885;49.758;9.582;2024-03-23T12:35:20;98685.13;;;12.93;44.20
78488;BME280;67885;49.758;9.582;2024-03-23T12:37:46;98677.50;;;12.98;44.64
78488;BME280;67885;49.758;9.582;2024-03-23T12:40:12;98670.47;;;13.07;43.69
78488;BME280;67885;49.758;9.582;2024-03-23T12:42:38;98668.25;;;13.20;43.84
78488;BME280;67885;49.758;9.582;2024-03-23T12:45:04;98668.84;;;13.32;44.16
78488;BME280;67885;49.758;9.582;2024-03-23T12:47:31;98630.72;;;13.23;41.80
78488;BME280;67885;49.758;9.582;2024-03-23T12:49:57;98630.94;;;13.30;41.39
78488;BME280;67885;49.758;9.582;2024-03-23T12:52:23;98642.88;;;13.44;41.58
78488;BME280;67885;49.758;9.582;2024-03-23T12:54:54;98657.31;;;13.59;40.93
78488;BME280;67885;49.758;9.582;2024-03-23T12:57:25;98651.88;;;13.69;41.07
78488;BME280;67885;49.758;9.582;2024-03-23T12:59:54;98646.28;;;13.80;40.76
78488;BME280;67885;49.758;9.582;2024-03-23T13:02:20;98613.06;;;13.58;39.78
78488;BME280;67885;49.758;9.582;2024-03-23T13:04:49;98595.13;;;13.69;41.29
78488;BME280;67885;49.758;9.582;2024-03-23T13:07:17;98645.78;;;14.11;40.80
78488;BME280;67885;49.758;9.582;2024-03-23T13:09:43;98649.00;;;14.23;39.21
78488;BME280;67885;49.758;9.582;2024-03-23T13:12:10;98650.50;;;14.26;38.79
78488;BME280;67885;49.758;9.582;2024-03-23T13:14:38;98644.31;;;14.25;38.07
78488;BME280;67885;49.758;9.582;2024-03-23T13:17:05;98654.00;;;14.26;38.93
78488;BME280;67885;49.758;9.582;2024-03-23T13:19:32;98641.53;;;14.35;40.33
78488;BME280;67885;49.758;9.582;2024-03-23T13:22:00;98644.38;;;14.42;38.63
78488;BME280;67885;49.758;9.582;2024-03-23T13:24:26;98639.88;;;14.34;38.07
78488;BME280;67885;49.758;9.582;2024-03-23T13:26:55;98549.75;;;13.70;38.60
78488;BME280;67885;49.758;9.582;2024-03-23T13:29:21;98629.97;;;14.10;38.96
78488;BME280;67885;49.758;9.582;2024-03-23T13:31:49;98629.78;;;14.11;39.00
78488;BME280;67885;49.758;9.582;2024-03-23T13:34:15;98635.66;;;14.15;39.63
78488;BME280;67885;49.758;9.582;2024-03-23T13:36:46;98649.94;;;14.14;38.23
78488;BME280;67885;49.758;9.582;2024-03-23T13:39:13;98640.09;;;14.06;38.90
78488;BME280;67885;49.758;9.582;2024-03-23T13:41:41;98623.75;;;14.01;39.06
78488;BME280;67885;49.758;9.582;2024-03-23T13:44:09;98616.78;;;14.00;39.35
78488;BME280;67885;49.758;9.582;2024-03-23T13:46:37;98632.28;;;14.13;40.17
78488;BME280;67885;49.758;9.582;2024-03-23T13:49:03;98630.16;;;14.16;39.34
78488;BME280;67885;49.758;9.582;2024-03-23T13:51:30;98633.16;;;14.13;38.79
78488;BME280;67885;49.758;9.582;2024-03-23T13:53:56;98613.59;;;13.96;37.56
78488;BME280;67885;49.758;9.582;2024-03-23T13:56:28;98629.53;;;13.88;37.90
78488;BME280;67885;49.758;9.582;2024-03-23T13:58:55;98597.47;;;13.63;39.09
78488;BME280;67885;49.758;9.582;2024-03-23T14:01:23;98569.19;;;13.36;38.98